createdAt,value
2022-07-26T00:01:32.209Z,6.00
2022-07-26T00:04:01.996Z,6.03
2022-07-26T00:06:31.062Z,5.53
2022-07-26T00:08:59.978Z,5.95
2022-07-26T00:11:30.905Z,6.40
2022-07-26T00:13:59.871Z,5.90
2022-07-26T00:16:31.045Z,7.30
2022-07-26T00:19:00.174Z,6.20
2022-07-26T00:21:30.726Z,6.60
2022-07-26T00:23:59.777Z,5.93
2022-07-26T00:26:28.816Z,6.03
2022-07-26T00:29:16.276Z,6.78
2022-07-26T00:31:46.814Z,6.15
2022-07-26T00:34:15.962Z,5.82
2022-07-26T00:36:46.116Z,5.82
2022-07-26T00:39:15.152Z,5.80
2022-07-26T00:41:44.153Z,6.15
2022-07-26T00:44:13.471Z,6.35
2022-07-26T00:46:43.795Z,6.25
2022-07-26T00:49:14.403Z,6.03
2022-07-26T00:51:46.565Z,5.80
2022-07-26T00:54:18.317Z,5.90
2022-07-26T00:56:52.049Z,5.88
2022-07-26T00:59:24.103Z,5.78
2022-07-26T01:01:53.462Z,5.97
2022-07-26T01:04:24.354Z,5.47
2022-07-26T01:06:53.577Z,6.68
2022-07-26T01:09:22.937Z,6.25
2022-07-26T01:11:52.346Z,5.55
2022-07-26T01:14:22.624Z,6.32
2022-07-26T01:16:52.494Z,6.22
2022-07-26T01:19:21.632Z,6.20
2022-07-26T01:21:53.053Z,6.32
2022-07-26T01:24:22.079Z,6.30
2022-07-26T01:26:51.042Z,6.38
2022-07-26T01:29:20.226Z,6.22
2022-07-26T01:31:49.632Z,6.20
2022-07-26T01:34:19.305Z,6.32
2022-07-26T01:36:49.218Z,6.10
2022-07-26T01:39:19.649Z,6.13
2022-07-26T01:41:48.666Z,6.13
2022-07-26T01:44:17.738Z,5.82
2022-07-26T01:46:46.745Z,6.50
2022-07-26T01:49:16.391Z,6.28
2022-07-26T01:51:45.781Z,6.00
2022-07-26T01:54:14.898Z,6.20
2022-07-26T01:56:53.161Z,6.43
2022-07-26T01:59:22.316Z,6.28
2022-07-26T02:01:51.320Z,6.25
2022-07-26T02:04:37.759Z,6.43
2022-07-26T02:07:11.258Z,6.05
2022-07-26T02:09:42.535Z,6.30
2022-07-26T02:12:13.351Z,6.93
2022-07-26T02:14:42.457Z,6.60
2022-07-26T02:17:11.750Z,6.97
2022-07-26T02:19:40.909Z,6.18
2022-07-26T02:22:10.163Z,7.25
2022-07-26T02:24:39.311Z,7.13
2022-07-26T02:27:08.562Z,6.55
2022-07-26T02:29:40.241Z,7.22
2022-07-26T02:32:09.858Z,7.25
2022-07-26T02:34:39.408Z,7.00
2022-07-26T02:37:08.583Z,6.93
2022-07-26T02:39:37.588Z,6.78
2022-07-26T02:42:06.916Z,7.20
2022-07-26T02:44:36.920Z,7.03
2022-07-26T02:47:07.668Z,6.57
2022-07-26T02:49:36.866Z,6.85
2022-07-26T02:52:07.346Z,6.55
2022-07-26T02:54:36.295Z,7.45
2022-07-26T02:57:05.442Z,7.50
2022-07-26T02:59:34.647Z,7.18
2022-07-26T03:02:03.845Z,7.07
2022-07-26T03:04:34.469Z,7.30
2022-07-26T03:07:03.522Z,7.13
2022-07-26T03:09:33.235Z,6.88
2022-07-26T03:12:02.147Z,7.25
2022-07-26T03:14:31.098Z,6.57
2022-07-26T03:17:00.245Z,7.13
2022-07-26T03:19:29.216Z,7.43
2022-07-26T03:21:59.589Z,7.05
2022-07-26T03:24:29.445Z,7.07
2022-07-26T03:26:58.601Z,8.02
2022-07-26T03:29:27.726Z,7.55
2022-07-26T03:31:56.849Z,7.13
2022-07-26T03:34:25.869Z,6.78
2022-07-26T03:36:54.989Z,6.70
2022-07-26T03:39:25.732Z,6.95
2022-07-26T03:41:54.800Z,6.30
2022-07-26T03:44:23.901Z,6.80
2022-07-26T03:46:52.863Z,6.85
2022-07-26T03:49:21.918Z,6.30
2022-07-26T03:51:50.959Z,6.88
2022-07-26T03:54:20.029Z,6.15
2022-07-26T03:56:49.533Z,6.28
2022-07-26T03:59:19.275Z,6.20
2022-07-26T04:01:49.454Z,5.93
2022-07-26T04:04:19.659Z,6.28
2022-07-26T04:06:55.218Z,6.25
2022-07-26T04:09:25.564Z,6.18
2022-07-26T04:11:56.305Z,6.47
2022-07-26T04:14:25.436Z,5.82
2022-07-26T04:16:54.699Z,5.82
2022-07-26T04:19:23.641Z,5.45
2022-07-26T04:21:52.692Z,5.88
2022-07-26T04:24:21.673Z,5.45
2022-07-26T04:26:56.261Z,6.38
2022-07-26T04:29:25.371Z,5.47
2022-07-26T04:31:54.354Z,5.30
2022-07-26T04:34:23.360Z,5.43
2022-07-26T04:36:52.973Z,5.50
2022-07-26T04:39:24.822Z,5.15
2022-07-26T04:41:53.855Z,5.43
2022-07-26T04:44:24.292Z,5.95
2022-07-26T04:46:58.307Z,6.00
2022-07-26T04:49:27.425Z,5.40
2022-07-26T04:51:59.354Z,5.63
2022-07-26T04:54:28.584Z,5.70
2022-07-26T04:56:57.622Z,5.68
2022-07-26T04:59:28.061Z,5.43
2022-07-26T05:02:02.005Z,5.20
2022-07-26T05:04:31.160Z,5.93
2022-07-26T05:07:02.821Z,5.22
2022-07-26T05:09:32.239Z,5.53
2022-07-26T05:12:01.419Z,5.10
2022-07-26T05:14:32.069Z,5.30
2022-07-26T05:17:08.689Z,5.75
2022-07-26T05:19:39.737Z,5.78
2022-07-26T05:22:08.806Z,5.53
2022-07-26T05:24:38.326Z,5.90
2022-07-26T05:27:07.608Z,5.22
2022-07-26T05:29:38.195Z,5.22
2022-07-26T05:32:08.106Z,5.30
2022-07-26T05:34:37.205Z,5.70
2022-07-26T05:37:06.405Z,5.30
2022-07-26T05:39:35.629Z,5.45
2022-07-26T05:42:04.697Z,5.60
2022-07-26T05:44:33.895Z,5.70
2022-07-26T05:47:04.626Z,5.70
2022-07-26T05:49:40.144Z,5.47
2022-07-26T05:52:10.055Z,5.00
2022-07-26T05:54:39.197Z,5.47
2022-07-26T05:57:08.487Z,5.20
2022-07-26T05:59:37.887Z,5.00
2022-07-26T06:02:09.325Z,4.97
2022-07-26T06:04:38.566Z,4.85
2022-07-26T06:07:08.221Z,5.22
2022-07-26T06:09:37.527Z,4.75
2022-07-26T06:12:07.697Z,4.57
2022-07-26T06:14:36.977Z,5.10
2022-07-26T06:17:07.744Z,4.90
2022-07-26T06:19:37.439Z,4.80
2022-07-26T06:22:07.090Z,4.78
2022-07-26T06:24:36.457Z,4.32
2022-07-26T06:27:05.803Z,4.35
2022-07-26T06:29:35.127Z,4.90
2022-07-26T06:32:04.452Z,4.43
2022-07-26T06:34:35.108Z,4.40
2022-07-26T06:37:04.309Z,3.92
2022-07-26T06:39:33.657Z,4.40
2022-07-26T06:42:02.750Z,4.35
2022-07-26T06:44:31.948Z,4.70
2022-07-26T06:47:01.268Z,3.83
2022-07-26T06:49:30.606Z,4.10
2022-07-26T06:52:01.389Z,3.63
2022-07-26T06:54:30.698Z,4.22
2022-07-26T06:57:00.307Z,8.60
2022-07-26T06:59:29.618Z,4.50
2022-07-26T07:02:00.532Z,3.63
2022-07-26T07:04:30.626Z,3.42
2022-07-26T07:07:05.925Z,3.83
2022-07-26T07:09:36.179Z,3.65
2022-07-26T07:12:09.672Z,3.67
2022-07-26T07:14:40.008Z,3.78
2022-07-26T07:17:10.454Z,3.60
2022-07-26T07:19:42.538Z,3.67
2022-07-26T07:22:13.320Z,4.03
2022-07-26T07:24:43.655Z,3.70
2022-07-26T07:27:13.534Z,3.75
2022-07-26T07:29:45.792Z,3.85
2022-07-26T07:32:16.097Z,4.03
2022-07-26T07:34:48.659Z,4.28
2022-07-26T07:37:20.443Z,3.88
2022-07-26T07:39:50.519Z,3.70
2022-07-26T07:42:21.033Z,4.35
2022-07-26T07:44:50.542Z,3.65
2022-07-26T07:47:19.813Z,11.25
2022-07-26T07:49:49.112Z,4.50
2022-07-26T07:52:19.973Z,3.90
2022-07-26T07:54:49.307Z,7.13
2022-07-26T07:57:18.682Z,4.53
2022-07-26T07:59:48.585Z,3.95
2022-07-26T08:02:18.104Z,3.63
2022-07-26T08:04:47.647Z,3.90
2022-07-26T08:07:18.737Z,3.67
2022-07-26T08:09:47.828Z,4.07
2022-07-26T08:12:17.613Z,3.80
2022-07-26T08:14:46.973Z,3.45
2022-07-26T08:17:16.338Z,3.65
2022-07-26T08:19:46.014Z,3.70
2022-07-26T08:22:15.284Z,3.40
2022-07-26T08:24:47.216Z,4.03
2022-07-26T08:27:16.575Z,3.58
2022-07-26T08:29:45.997Z,3.47
2022-07-26T08:32:25.113Z,3.45
2022-07-26T08:34:55.056Z,4.18
2022-07-26T08:37:45.523Z,3.47
2022-07-26T08:40:18.327Z,4.03
2022-07-26T08:42:52.632Z,3.60
2022-07-26T08:45:25.364Z,3.72
2022-07-26T08:48:16.675Z,4.05
2022-07-26T08:50:45.053Z,3.95
2022-07-26T08:53:14.764Z,3.70
2022-07-26T08:56:06.395Z,4.15
2022-07-26T08:58:37.790Z,4.60
2022-07-26T09:01:09.765Z,4.65
2022-07-26T09:03:39.330Z,4.38
2022-07-26T09:06:17.124Z,3.72
2022-07-26T09:08:47.110Z,3.47
2022-07-26T09:11:31.924Z,4.82
2022-07-26T09:14:03.537Z,4.10
2022-07-26T09:16:38.767Z,3.80
2022-07-26T09:19:19.374Z,3.75
2022-07-26T09:21:48.815Z,3.88
2022-07-26T09:24:32.709Z,3.60
2022-07-26T09:27:06.539Z,3.50
2022-07-26T09:29:46.535Z,3.72
2022-07-26T09:32:21.177Z,4.05
2022-07-26T09:34:53.416Z,5.47
2022-07-26T09:37:37.482Z,4.82
2022-07-26T09:40:09.154Z,5.50
2022-07-26T09:42:54.455Z,4.10
2022-07-26T09:45:24.196Z,3.97
2022-07-26T09:47:54.253Z,4.15
2022-07-26T09:50:25.185Z,4.35
2022-07-26T09:53:08.189Z,5.30
2022-07-26T09:55:44.728Z,4.10
2022-07-26T09:58:17.613Z,5.25
2022-07-26T10:00:47.159Z,5.28
2022-07-26T10:03:17.336Z,4.72
2022-07-26T10:05:46.598Z,5.10
2022-07-26T10:08:16.629Z,4.75
2022-07-26T10:10:50.368Z,4.85
2022-07-26T10:13:21.417Z,4.63
2022-07-26T10:15:52.004Z,4.47
2022-07-26T10:18:44.498Z,4.18
2022-07-26T10:21:25.502Z,4.35
2022-07-26T10:23:57.090Z,4.60
2022-07-26T10:26:47.162Z,4.28
2022-07-26T10:29:29.431Z,4.43
2022-07-26T10:32:21.596Z,5.28
2022-07-26T10:34:51.117Z,4.38
2022-07-26T10:37:28.324Z,4.47
2022-07-26T10:40:19.825Z,4.88
2022-07-26T10:42:49.195Z,4.50
2022-07-26T10:45:22.634Z,4.80
2022-07-26T10:48:12.207Z,4.60
2022-07-26T10:50:42.145Z,4.85
2022-07-26T10:53:18.213Z,4.88
2022-07-26T10:55:50.228Z,4.47
2022-07-26T10:58:20.002Z,4.60
2022-07-26T11:01:01.543Z,5.20
2022-07-26T11:06:28.067Z,4.68
2022-07-26T11:09:01.159Z,4.65
2022-07-26T11:11:33.072Z,5.30
2022-07-26T11:14:11.500Z,4.72
2022-07-26T11:16:46.709Z,5.20
2022-07-26T11:19:20.118Z,4.85
2022-07-26T11:21:55.714Z,4.60
2022-07-26T11:24:35.105Z,4.45
2022-07-26T11:27:05.531Z,4.30
2022-07-26T11:29:49.230Z,4.57
2022-07-26T11:32:26.222Z,5.20
2022-07-26T11:35:00.609Z,4.60
2022-07-26T11:37:33.844Z,5.15
2022-07-26T11:40:04.657Z,5.32
2022-07-26T11:42:34.055Z,4.72
2022-07-26T11:45:03.566Z,5.13
2022-07-26T11:47:35.802Z,9.10
2022-07-26T11:50:21.972Z,5.22
2022-07-26T11:52:55.412Z,5.10
2022-07-26T11:55:29.209Z,4.70
2022-07-26T11:58:05.481Z,4.40
2022-07-26T12:00:35.155Z,6.65
2022-07-26T12:03:07.960Z,4.82
2022-07-26T12:08:26.198Z,4.45
2022-07-26T12:11:05.951Z,4.65
2022-07-26T12:16:50.207Z,4.65
2022-07-26T12:19:35.159Z,4.90
2022-07-26T12:22:12.370Z,4.75
2022-07-26T12:24:46.214Z,5.10
2022-07-26T13:10:33.649Z,7.15
2022-07-26T13:50:21.782Z,8.30
2022-07-26T13:52:54.249Z,8.57
2022-07-26T13:55:28.163Z,7.60
2022-07-26T13:58:09.877Z,8.90
2022-07-26T14:00:44.349Z,7.88
2022-07-26T14:03:35.485Z,8.60
2022-07-26T14:06:12.316Z,8.23
2022-07-26T14:08:45.549Z,8.50
2022-07-26T14:11:18.348Z,7.95
2022-07-26T14:13:51.989Z,8.63
2022-07-26T14:16:22.706Z,7.78
2022-07-26T14:19:01.476Z,8.05
2022-07-26T14:21:58.708Z,7.50
2022-07-26T14:24:34.820Z,7.22
2022-07-26T14:27:09.507Z,8.20
2022-07-26T14:29:41.830Z,8.35
2022-07-26T14:32:22.640Z,7.85
2022-07-26T14:34:57.345Z,6.28
2022-07-26T14:37:41.867Z,6.90
2022-07-26T15:28:47.008Z,4.60
2022-07-26T15:31:21.562Z,4.72
2022-07-26T15:33:51.827Z,4.70
2022-07-26T15:36:21.406Z,4.40
2022-07-26T15:39:05.296Z,4.80
2022-07-26T15:41:51.173Z,4.35
2022-07-26T15:44:25.525Z,4.20
2022-07-26T15:46:55.532Z,3.95
2022-07-26T15:49:26.428Z,3.63
2022-07-26T15:51:56.692Z,3.83
2022-07-26T15:54:28.923Z,3.33
2022-07-26T15:56:59.694Z,3.17
2022-07-26T15:59:42.605Z,3.63
2022-07-26T16:02:13.717Z,2.85
2022-07-26T16:04:45.724Z,3.17
2022-07-26T16:07:19.088Z,2.97
2022-07-26T16:09:50.515Z,3.00
2022-07-26T16:12:24.536Z,3.13
2022-07-26T16:15:00.258Z,2.92
2022-07-26T16:17:32.656Z,3.05
2022-07-26T16:25:39.187Z,3.58
2022-07-26T16:28:29.105Z,2.75
2022-07-26T16:31:02.747Z,3.40
2022-07-26T16:33:33.480Z,3.17
2022-07-26T16:36:13.886Z,3.42
2022-07-26T16:38:46.056Z,3.20
2022-07-26T16:41:29.591Z,3.33
2022-07-26T16:44:14.704Z,3.08
2022-07-26T16:46:48.555Z,3.63
2022-07-26T16:49:39.154Z,3.20
2022-07-26T16:52:13.955Z,3.00
2022-07-26T16:54:43.836Z,3.70
2022-07-26T16:57:14.172Z,3.70
2022-07-26T17:02:49.502Z,3.35
2022-07-26T17:05:19.641Z,3.65
2022-07-26T17:10:37.755Z,3.38
2022-07-26T17:13:11.326Z,3.45
2022-07-26T17:15:43.321Z,3.60
2022-07-26T17:18:17.012Z,3.20
2022-07-26T17:20:54.302Z,3.30
2022-07-26T17:23:33.496Z,3.22
2022-07-26T17:26:04.174Z,3.70
2022-07-26T17:28:42.247Z,3.25
2022-07-26T17:31:12.598Z,3.95
2022-07-26T17:33:54.417Z,3.80
2022-07-26T17:36:27.429Z,3.60
2022-07-26T17:39:02.545Z,4.15
2022-07-26T17:41:33.643Z,3.83
2022-07-26T17:44:12.306Z,3.83
2022-07-26T17:46:47.169Z,3.65
2022-07-26T17:49:27.519Z,4.32
2022-07-26T17:51:58.879Z,4.18
2022-07-26T17:54:30.691Z,3.65
2022-07-26T17:57:01.660Z,4.05
2022-07-26T17:59:33.883Z,3.67
2022-07-26T18:02:04.061Z,4.10
2022-07-26T18:05:12.614Z,4.22
2022-07-26T18:07:43.034Z,4.28
2022-07-26T18:10:15.422Z,3.97
2022-07-26T18:15:37.016Z,3.80
2022-07-26T18:18:11.790Z,4.38
2022-07-26T18:20:44.111Z,4.10
2022-07-26T18:23:13.512Z,4.30
2022-07-26T18:25:42.971Z,4.82
2022-07-26T18:28:12.604Z,4.20
2022-07-26T18:30:42.190Z,4.65
2022-07-26T18:33:14.299Z,5.18
2022-07-26T18:35:45.723Z,3.65
2022-07-26T18:38:14.963Z,4.47
2022-07-26T18:40:44.266Z,4.53
2022-07-26T18:43:13.628Z,4.28
2022-07-26T18:45:42.636Z,4.68
2022-07-26T18:48:11.826Z,4.57
2022-07-26T18:50:41.124Z,4.32
2022-07-26T18:53:20.254Z,3.85
2022-07-26T18:55:51.480Z,3.97
2022-07-26T18:58:24.785Z,4.38
2022-07-26T19:01:00.671Z,4.40
2022-07-26T19:03:36.850Z,4.30
2022-07-26T19:06:07.992Z,4.28
2022-07-26T19:08:39.373Z,3.85
2022-07-26T19:11:09.372Z,4.20
2022-07-26T19:13:41.845Z,3.90
2022-07-26T19:16:16.432Z,3.90
2022-07-26T19:18:57.278Z,4.38
2022-07-26T19:21:30.295Z,3.88
2022-07-26T19:24:04.953Z,3.70
2022-07-26T19:26:34.714Z,4.10
2022-07-26T19:29:03.755Z,4.00
2022-07-26T19:31:33.070Z,4.13
2022-07-26T19:34:02.659Z,4.75
2022-07-26T19:36:32.000Z,4.35
2022-07-26T19:39:02.484Z,4.82
2022-07-26T19:41:31.772Z,4.60
2022-07-26T19:44:00.972Z,4.10
2022-07-26T19:46:30.525Z,4.43
2022-07-26T19:48:59.730Z,4.18
2022-07-26T19:51:28.875Z,4.95
2022-07-26T19:53:58.058Z,4.32
2022-07-26T19:56:28.573Z,3.92
2022-07-26T19:58:57.863Z,4.03
2022-07-26T20:01:27.084Z,4.25
2022-07-26T20:03:56.968Z,4.32
2022-07-26T20:06:27.032Z,4.55
2022-07-26T20:08:56.101Z,3.95
2022-07-26T20:11:25.168Z,4.68
2022-07-26T20:13:56.729Z,4.35
2022-07-26T20:16:25.736Z,4.88
2022-07-26T20:18:54.884Z,5.00
2022-07-26T20:21:23.915Z,4.55
2022-07-26T20:23:52.933Z,5.30
2022-07-26T20:26:22.143Z,5.32
2022-07-26T20:28:51.323Z,4.97
2022-07-26T20:31:21.776Z,5.45
2022-07-26T20:33:50.854Z,5.00
2022-07-26T20:36:20.039Z,5.50
2022-07-26T20:38:51.772Z,6.00
2022-07-26T20:41:22.090Z,5.03
2022-07-26T20:43:52.927Z,5.60
2022-07-26T20:46:28.618Z,5.32
2022-07-26T20:48:59.685Z,5.15
2022-07-26T20:51:29.924Z,5.60
2022-07-26T20:54:03.878Z,5.68
2022-07-26T20:56:36.711Z,6.15
2022-07-26T20:59:06.875Z,5.72
2022-07-26T21:01:39.832Z,6.05
2022-07-26T21:04:13.889Z,5.55
2022-07-26T21:06:43.264Z,6.00
2022-07-26T21:09:15.360Z,5.97
2022-07-26T21:11:44.933Z,6.13
2022-07-26T21:14:13.919Z,6.15
2022-07-26T21:16:47.196Z,6.15
2022-07-26T21:19:16.503Z,6.10
2022-07-26T21:21:45.613Z,6.20
2022-07-26T21:24:16.590Z,6.32
2022-07-26T21:26:45.876Z,6.25
2022-07-26T21:29:15.588Z,7.50
2022-07-26T21:31:48.615Z,6.32
2022-07-26T21:34:17.962Z,6.50
2022-07-26T21:36:48.584Z,7.05
2022-07-26T21:39:18.621Z,7.05
2022-07-26T21:41:47.714Z,6.78
2022-07-26T21:44:16.935Z,7.22
2022-07-26T21:46:49.362Z,6.55
2022-07-26T21:49:26.932Z,7.95
2022-07-26T21:51:56.097Z,6.97
2022-07-26T21:54:25.289Z,6.70
2022-07-26T21:56:54.361Z,7.47
2022-07-26T21:59:24.215Z,7.15
2022-07-26T22:02:57.081Z,6.90
2022-07-26T22:05:47.180Z,7.38
2022-07-26T22:08:22.645Z,7.18
2022-07-26T22:10:51.947Z,7.40
2022-07-26T22:13:21.758Z,6.78
2022-07-26T22:15:51.905Z,7.95
2022-07-26T22:19:15.494Z,8.13
2022-07-26T22:22:05.931Z,7.88
2022-07-26T22:24:35.070Z,7.30
2022-07-26T22:27:10.357Z,7.25
2022-07-26T22:29:42.366Z,7.93
2022-07-26T22:32:11.495Z,7.70
2022-07-26T22:34:40.621Z,8.27
2022-07-26T22:37:11.332Z,7.68
2022-07-26T22:39:40.495Z,7.70
2022-07-26T22:42:16.734Z,8.27
2022-07-26T22:44:46.495Z,7.82
2022-07-26T22:47:15.471Z,8.60
2022-07-26T22:49:44.352Z,8.60
2022-07-26T22:52:17.730Z,8.70
2022-07-26T22:54:46.883Z,8.27
2022-07-26T22:57:16.018Z,8.40
2022-07-26T22:59:45.020Z,8.32
2022-07-26T23:02:14.049Z,8.48
2022-07-26T23:07:30.728Z,8.80
2022-07-26T23:10:02.074Z,7.88
2022-07-26T23:12:31.188Z,8.70
2022-07-26T23:15:00.236Z,8.18
2022-07-26T23:17:43.083Z,8.90
2022-07-26T23:20:12.889Z,8.15
2022-07-26T23:22:43.601Z,8.20
2022-07-26T23:25:12.696Z,8.88
2022-07-26T23:27:41.735Z,8.35
2022-07-26T23:30:18.037Z,8.30
2022-07-26T23:32:47.070Z,8.45
2022-07-26T23:35:16.082Z,7.88
2022-07-26T23:37:46.461Z,8.35
2022-07-26T23:40:16.239Z,8.57
2022-07-26T23:42:45.476Z,7.97
2022-07-26T23:45:14.719Z,7.18
2022-07-26T23:47:43.930Z,7.70
2022-07-26T23:50:13.157Z,7.43
2022-07-26T23:52:42.580Z,7.00
2022-07-26T23:55:13.784Z,6.72
2022-07-26T23:57:42.948Z,6.38
